Time;durP1;ratioP1;P1;durP2;ratioP2;P2;SDS_P1;SDS_P2;PMS_P1;PMS_P2;Temp;Humidity;BMP_temperature;BMP_pressure;BME280_temperature;BME280_humidity;BME280_pressure;Samples;Min_cycle;Max_cycle;Signal;HPM_P1;HPM_P2
2023/08/17 00:03:13;;;;;;;23.67;21.30;;;;;;;;;;12853868;23;20001;-73
2023/08/17 00:08:13;;;;;;;791.95;721.05;;;;;;;;;;12876812;23;20282;-73
2023/08/17 00:13:14;;;;;;;12.48;6.80;;;;;;;;;;12877543;23;19992;-73
2023/08/17 00:18:14;;;;;;;13.50;7.30;;;;;;;;;;12854840;23;20000;-74
2023/08/17 00:23:15;;;;;;;13.53;7.53;;;;;;;;;;12876840;23;20186;-75
2023/08/17 00:28:15;;;;;;;10.50;6.10;;;;;;;;;;12877445;23;20331;-74
2023/08/17 00:33:15;;;;;;;9.30;6.03;;;;;;;;;;12876742;23;20214;-75
2023/08/17 00:38:16;;;;;;;12.93;5.70;;;;;;;;;;12854372;23;20012;-75
2023/08/17 00:43:16;;;;;;;9.87;4.83;;;;;;;;;;12864808;23;19999;-73
2023/08/17 00:48:16;;;;;;;8.77;4.18;;;;;;;;;;12880155;23;20215;-73
2023/08/17 00:53:17;;;;;;;11.47;4.73;;;;;;;;;;12880490;23;19985;-73
2023/08/17 00:58:17;;;;;;;8.82;4.25;;;;;;;;;;12880341;23;20575;-73
2023/08/17 01:03:18;;;;;;;5.53;3.88;;;;;;;;;;12880280;23;20532;-74
2023/08/17 01:08:18;;;;;;;4.53;3.80;;;;;;;;;;12880364;23;20217;-73
2023/08/17 01:13:22;;;;;;;8.33;3.80;;;;;;;;;;12879847;23;20051;-73
2023/08/17 01:18:25;;;;;;;8.25;3.38;;;;;;;;;;12879802;23;19989;-73
2023/08/17 01:23:26;;;;;;;6.88;3.75;;;;;;;;;;12879568;23;20005;-73
2023/08/17 01:28:27;;;;;;;5.80;3.78;;;;;;;;;;12879619;23;20290;-73
2023/08/17 01:33:44;;;;;;;5.63;3.65;;;;;;;;;;12857240;23;20050;-73
2023/08/17 01:38:44;;;;;;;5.82;3.15;;;;;;;;;;12878917;23;20186;-73
2023/08/17 01:43:45;;;;;;;5.07;3.30;;;;;;;;;;12864484;23;20000;-73
2023/08/17 01:48:46;;;;;;;7.03;4.85;;;;;;;;;;12879202;23;19996;-73
2023/08/17 01:53:47;;;;;;;11.00;3.85;;;;;;;;;;12878737;23;20390;-73
2023/08/17 01:58:47;;;;;;;8.43;3.33;;;;;;;;;;12879372;23;19999;-73
2023/08/17 02:03:47;;;;;;;9.52;3.15;;;;;;;;;;12879008;23;20218;-73
2023/08/17 02:08:47;;;;;;;7.10;3.20;;;;;;;;;;12879067;23;20012;-73
2023/08/17 02:13:48;;;;;;;6.15;3.20;;;;;;;;;;12878858;23;20218;-73
2023/08/17 02:18:48;;;;;;;4.05;2.92;;;;;;;;;;12878916;23;20008;-73
2023/08/17 02:23:48;;;;;;;4.38;3.25;;;;;;;;;;12856329;23;20075;-73
2023/08/17 02:28:48;;;;;;;5.90;3.63;;;;;;;;;;12878113;23;19988;-73
2023/08/17 02:33:49;;;;;;;5.43;3.60;;;;;;;;;;12878262;23;19988;-73
2023/08/17 02:38:49;;;;;;;4.18;2.72;;;;;;;;;;12878089;23;20498;-73
2023/08/17 02:43:49;;;;;;;5.07;3.00;;;;;;;;;;12862915;23;20028;-73
2023/08/17 02:48:50;;;;;;;10.70;3.92;;;;;;;;;;12878231;23;20290;-73
2023/08/17 02:53:51;;;;;;;5.13;3.83;;;;;;;;;;12877610;23;20009;-73
2023/08/17 02:58:51;;;;;;;5.75;4.00;;;;;;;;;;12877770;23;20530;-73
2023/08/17 03:03:51;;;;;;;7.57;3.83;;;;;;;;;;12877625;23;20002;-73
2023/08/17 03:08:52;;;;;;;6.32;3.47;;;;;;;;;;12877085;23;20345;-73
2023/08/17 03:13:59;;;;;;;7.10;3.30;;;;;;;;;;12877485;23;19993;-73
2023/08/17 03:19:00;;;;;;;7.63;3.28;;;;;;;;;;12877747;23;20028;-73
2023/08/17 03:24:00;;;;;;;7.07;3.37;;;;;;;;;;12876859;23;20012;-73
2023/08/17 03:29:00;;;;;;;6.85;3.00;;;;;;;;;;12877058;23;20052;-73
2023/08/17 03:34:01;;;;;;;5.57;3.37;;;;;;;;;;12855309;23;19993;-72
2023/08/17 03:39:01;;;;;;;8.48;3.22;;;;;;;;;;12876920;23;19992;-72
2023/08/17 03:44:01;;;;;;;6.53;3.00;;;;;;;;;;12860760;23;20027;-73
2023/08/17 03:49:02;;;;;;;7.60;4.70;;;;;;;;;;12876889;23;20032;-72
2023/08/17 03:54:03;;;;;;;5.35;2.60;;;;;;;;;;12876560;23;20394;-72
2023/08/17 03:59:03;;;;;;;6.23;4.47;;;;;;;;;;12876281;23;20590;-72
2023/08/17 04:04:03;;;;;;;6.03;3.67;;;;;;;;;;12876242;23;20243;-69
2023/08/17 04:09:04;;;;;;;5.18;3.08;;;;;;;;;;12876663;23;20023;-70
2023/08/17 04:14:04;;;;;;;3.63;2.97;;;;;;;;;;12876513;23;19995;-71
2023/08/17 04:19:04;;;;;;;7.13;3.17;;;;;;;;;;12880463;23;20323;-71
2023/08/17 04:24:05;;;;;;;4.75;3.05;;;;;;;;;;12880659;23;20251;-70
2023/08/17 04:29:05;;;;;;;5.53;3.35;;;;;;;;;;12882595;23;20027;-75
2023/08/17 04:34:06;;;;;;;5.05;2.80;;;;;;;;;;12874612;23;19996;-82
2023/08/17 04:39:06;;;;;;;9.27;3.13;;;;;;;;;;12852522;23;20333;-79
2023/08/17 04:44:06;;;;;;;6.88;2.63;;;;;;;;;;12852962;23;20180;-81
2023/08/17 04:49:07;;;;;;;4.57;2.87;;;;;;;;;;12875592;23;20020;-75
2023/08/17 04:54:07;;;;;;;6.43;2.80;;;;;;;;;;12879887;23;20397;-75
2023/08/17 04:59:08;;;;;;;7.15;2.33;;;;;;;;;;12882975;23;20008;-75
2023/08/17 05:04:08;;;;;;;9.60;2.70;;;;;;;;;;12882684;23;20286;-75
2023/08/17 05:09:08;;;;;;;5.85;2.65;;;;;;;;;;12879296;23;20389;-74
2023/08/17 05:14:09;;;;;;;9.00;2.92;;;;;;;;;;12876495;23;19995;-74
2023/08/17 05:19:09;;;;;;;5.18;2.33;;;;;;;;;;12870095;23;20032;-74
2023/08/17 05:24:09;;;;;;;8.57;2.30;;;;;;;;;;12878972;23;20107;-74
2023/08/17 05:29:09;;;;;;;4.63;2.70;;;;;;;;;;12880949;23;19993;-75
2023/08/17 05:34:10;;;;;;;10.02;2.75;;;;;;;;;;12878770;23;20058;-74
2023/08/17 05:39:10;;;;;;;2.97;1.90;;;;;;;;;;12879174;23;20004;-74
2023/08/17 05:44:10;;;;;;;3.77;2.20;;;;;;;;;;12861947;23;20356;-74
2023/08/17 05:49:10;;;;;;;5.97;2.22;;;;;;;;;;12878703;23;20054;-73
2023/08/17 05:54:11;;;;;;;10.10;2.80;;;;;;;;;;12879977;23;19993;-74
2023/08/17 05:59:11;;;;;;;13.45;2.85;;;;;;;;;;12878368;23;20301;-74
2023/08/17 06:04:11;;;;;;;12.63;2.97;;;;;;;;;;12878960;23;20059;-74
2023/08/17 06:09:12;;;;;;;8.15;3.05;;;;;;;;;;12878544;23;20271;-74
2023/08/17 06:14:12;;;;;;;6.80;3.03;;;;;;;;;;12878191;23;20027;-74
2023/08/17 06:19:12;;;;;;;9.68;2.95;;;;;;;;;;12878733;23;19989;-74
2023/08/17 06:24:13;;;;;;;6.63;1.92;;;;;;;;;;12856430;23;20060;-75
2023/08/17 06:29:13;;;;;;;6.22;2.28;;;;;;;;;;12878306;23;20191;-75
2023/08/17 06:34:13;;;;;;;7.65;2.58;;;;;;;;;;12856237;23;20155;-74
2023/08/17 06:39:13;;;;;;;6.53;2.63;;;;;;;;;;12855978;23;19993;-75
2023/08/17 06:44:14;;;;;;;10.90;3.28;;;;;;;;;;12860768;23;20004;-75
2023/08/17 06:49:14;;;;;;;12.18;3.75;;;;;;;;;;12877868;23;20276;-74
2023/08/17 06:54:14;;;;;;;7.77;3.30;;;;;;;;;;12877988;23;20079;-74
2023/08/17 06:59:15;;;;;;;12.15;2.90;;;;;;;;;;12877645;23;20523;-74
2023/08/17 07:04:15;;;;;;;9.65;3.38;;;;;;;;;;12855713;23;20205;-74
2023/08/17 07:09:15;;;;;;;7.38;3.05;;;;;;;;;;12877495;23;20041;-75
2023/08/17 07:14:15;;;;;;;9.80;2.60;;;;;;;;;;12856083;23;20016;-75
2023/08/17 07:19:16;;;;;;;5.80;2.08;;;;;;;;;;12877492;23;20413;-75
2023/08/17 07:24:16;;;;;;;4.25;1.77;;;;;;;;;;12878238;23;20012;-75
2023/08/17 07:29:16;;;;;;;4.50;2.22;;;;;;;;;;12877442;23;20052;-75
2023/08/17 07:34:16;;;;;;;5.30;2.53;;;;;;;;;;12877009;23;20039;-74
2023/08/17 07:39:18;;;;;;;9.00;2.40;;;;;;;;;;12877233;23;19988;-76
2023/08/17 07:44:18;;;;;;;3.25;2.22;;;;;;;;;;12861971;23;20175;-75
2023/08/17 07:49:19;;;;;;;5.47;1.95;;;;;;;;;;12854584;23;20016;-76
2023/08/17 07:54:20;;;;;;;3.50;2.15;;;;;;;;;;12877083;23;20059;-72
2023/08/17 07:59:20;;;;;;;6.65;1.95;;;;;;;;;;12876949;23;20100;-74
2023/08/17 08:04:20;;;;;;;3.13;1.90;;;;;;;;;;12876724;23;20004;-75
2023/08/17 08:09:21;;;;;;;6.73;2.20;;;;;;;;;;12876611;23;20175;-74
2023/08/17 08:14:21;;;;;;;6.65;1.80;;;;;;;;;;12876552;23;20011;-72
2023/08/17 08:19:22;;;;;;;3.72;1.70;;;;;;;;;;12876453;23;20008;-72
2023/08/17 08:24:22;;;;;;;6.38;1.90;;;;;;;;;;12854015;23;20127;-73
2023/08/17 08:29:22;;;;;;;7.37;2.20;;;;;;;;;;12876377;23;20056;-72
2023/08/17 08:34:22;;;;;;;3.90;2.00;;;;;;;;;;12876357;23;20175;-72
2023/08/17 08:39:25;;;;;;;8.68;2.05;;;;;;;;;;12875814;23;19985;-75
2023/08/17 08:44:25;;;;;;;3.58;1.33;;;;;;;;;;12858443;23;19997;-74
2023/08/17 08:49:26;;;;;;;3.63;1.80;;;;;;;;;;12876134;23;20306;-70
2023/08/17 08:54:28;;;;;;;2.67;1.42;;;;;;;;;;12875935;23;19996;-69
2023/08/17 08:59:29;;;;;;;2.90;1.48;;;;;;;;;;12875871;23;20210;-71
2023/08/17 09:04:29;;;;;;;5.50;1.50;;;;;;;;;;12877091;23;20004;-71
2023/08/17 09:09:30;;;;;;;5.22;1.90;;;;;;;;;;12857996;23;20270;-71
2023/08/17 09:14:30;;;;;;;4.18;1.33;;;;;;;;;;12879985;23;19985;-71
2023/08/17 09:19:34;;;;;;;6.05;1.63;;;;;;;;;;12879925;23;20080;-71
2023/08/17 09:24:35;;;;;;;5.18;1.60;;;;;;;;;;12879767;23;20009;-70
2023/08/17 09:29:38;;;;;;;6.43;1.60;;;;;;;;;;12879653;23;19992;-70
2023/08/17 09:34:41;;;;;;;5.28;1.30;;;;;;;;;;12857065;23;20090;-70
2023/08/17 09:39:41;;;;;;;7.45;1.52;;;;;;;;;;12879359;23;20214;-70
2023/08/17 09:44:42;;;;;;;3.63;1.20;;;;;;;;;;12860545;23;20000;-70
2023/08/17 09:49:42;;;;;;;2.65;1.00;;;;;;;;;;12878766;23;20060;-70
2023/08/17 09:54:43;;;;;;;3.05;1.20;;;;;;;;;;12856268;23;20257;-70
2023/08/17 09:59:43;;;;;;;2.17;1.25;;;;;;;;;;12879005;23;20012;-70
2023/08/17 10:04:44;;;;;;;4.57;1.10;;;;;;;;;;12878615;23;20290;-70
2023/08/17 10:09:46;;;;;;;5.53;1.10;;;;;;;;;;12878494;23;19988;-71
2023/08/17 10:14:49;;;;;;;2.55;1.20;;;;;;;;;;12878628;23;19993;-70
2023/08/17 10:19:52;;;;;;;2.42;0.90;;;;;;;;;;12878007;23;20195;-70
2023/08/17 10:24:54;;;;;;;2.40;1.10;;;;;;;;;;12877976;23;20295;-70
2023/08/17 10:29:54;;;;;;;2.78;1.10;;;;;;;;;;12856096;23;19993;-71
2023/08/17 10:34:55;;;;;;;1.77;1.02;;;;;;;;;;12878265;23;19997;-71
2023/08/17 10:39:55;;;;;;;3.05;1.20;;;;;;;;;;12877881;23;20023;-71
2023/08/17 10:44:55;;;;;;;2.37;0.83;;;;;;;;;;12858147;23;20000;-70
2023/08/17 10:49:57;;;;;;;1.25;0.90;;;;;;;;;;12877853;23;20245;-71
2023/08/17 10:55:09;;;;;;;4.50;1.00;;;;;;;;;;12877947;23;19988;-71
2023/08/17 11:00:32;;;;;;;1.83;1.00;;;;;;;;;;12877720;23;20228;-70
2023/08/17 11:05:38;;;;;;;2.45;1.20;;;;;;;;;;12877537;23;20008;-70
2023/08/17 11:10:39;;;;;;;4.55;1.23;;;;;;;;;;12876990;23;20035;-70
2023/08/17 11:15:42;;;;;;;3.33;1.20;;;;;;;;;;12855811;23;20011;-70
2023/08/17 11:20:42;;;;;;;5.07;1.27;;;;;;;;;;12877125;23;20019;-70
2023/08/17 11:25:43;;;;;;;5.53;1.37;;;;;;;;;;12876606;23;20171;-70
2023/08/17 11:30:43;;;;;;;8.03;2.07;;;;;;;;;;12877208;23;19995;-70
2023/08/17 11:35:44;;;;;;;1.63;1.53;;;;;;;;;;12876789;23;20227;-70
2023/08/17 11:40:44;;;;;;;7.03;2.10;;;;;;;;;;12874744;23;20191;-70
2023/08/17 11:45:44;;;;;;;9.32;2.45;;;;;;;;;;12877101;23;20000;-70
2023/08/17 11:50:45;;;;;;;11.33;2.97;;;;;;;;;;12876289;23;20019;-71
2023/08/17 11:55:45;;;;;;;4.80;2.60;;;;;;;;;;12854183;23;20005;-70
2023/08/17 12:00:45;;;;;;;3.75;2.63;;;;;;;;;;12876439;23;20111;-70
2023/08/17 12:05:46;;;;;;;6.00;2.20;;;;;;;;;;12862201;23;20295;-70
2023/08/17 12:10:46;;;;;;;3.38;2.13;;;;;;;;;;12875863;23;20015;-70
2023/08/17 12:15:46;;;;;;;5.47;2.40;;;;;;;;;;12876511;23;20275;-71
2023/08/17 12:20:51;;;;;;;3.80;2.73;;;;;;;;;;12875825;23;20016;-71
2023/08/17 12:25:52;;;;;;;7.53;2.17;;;;;;;;;;12875557;23;20000;-70
2023/08/17 12:30:59;;;;;;;8.57;2.35;;;;;;;;;;12876013;23;20003;-71
2023/08/17 12:35:59;;;;;;;;;;;;;;;;;;12876208;23;19992;-71
2023/08/17 12:41:00;;;;;;;5.05;2.70;;;;;;;;;;12876360;23;19907;-71
2023/08/17 12:46:00;;;;;;;8.10;3.20;;;;;;;;;;12880265;23;20043;-70
2023/08/17 12:51:00;;;;;;;4.57;2.70;;;;;;;;;;12879762;23;19996;-71
2023/08/17 12:56:00;;;;;;;6.03;2.47;;;;;;;;;;12881118;23;20049;-71
2023/08/17 13:01:02;;;;;;;3.70;2.27;;;;;;;;;;12880136;23;19996;-71
2023/08/17 13:06:02;;;;;;;4.32;2.40;;;;;;;;;;12880087;23;20253;-70
2023/08/17 13:11:02;;;;;;;10.85;3.08;;;;;;;;;;12879681;23;20095;-70
2023/08/17 13:16:03;;;;;;;3.20;2.80;;;;;;;;;;12880023;23;19989;-70
2023/08/17 13:21:03;;;;;;;5.97;2.80;;;;;;;;;;12879649;23;20237;-71
2023/08/17 13:26:03;;;;;;;10.52;2.97;;;;;;;;;;12878380;23;20059;-71
2023/08/17 13:31:04;;;;;;;9.05;3.55;;;;;;;;;;12879577;23;19988;-71
2023/08/17 13:36:04;;;;;;;4.60;3.07;;;;;;;;;;12879661;23;20279;-71
2023/08/17 13:41:04;;;;;;;7.10;3.93;;;;;;;;;;12875557;23;19996;-71
2023/08/17 13:46:05;;;;;;;7.75;2.65;;;;;;;;;;12879143;23;20285;-71
2023/08/17 13:51:05;;;;;;;9.97;3.73;;;;;;;;;;12878935;23;19997;-71
2023/08/17 13:56:05;;;;;;;7.03;3.17;;;;;;;;;;12879155;23;20307;-71
2023/08/17 14:01:06;;;;;;;8.70;3.47;;;;;;;;;;12878515;23;20035;-70
2023/08/17 14:06:06;;;;;;;6.20;2.97;;;;;;;;;;12856454;23;20004;-71
2023/08/17 14:11:06;;;;;;;4.10;2.88;;;;;;;;;;12878256;23;20302;-71
2023/08/17 14:16:07;;;;;;;6.18;3.03;;;;;;;;;;12878156;23;20055;-71
2023/08/17 14:21:07;;;;;;;6.88;2.80;;;;;;;;;;12877817;23;20013;-71
2023/08/17 14:26:07;;;;;;;12.93;4.23;;;;;;;;;;12878336;23;20343;-71
2023/08/17 14:31:07;;;;;;;7.10;3.25;;;;;;;;;;12878082;23;20445;-70
2023/08/17 14:36:08;;;;;;;13.88;3.42;;;;;;;;;;12879165;23;20011;-70
2023/08/17 14:41:09;;;;;;;5.18;3.13;;;;;;;;;;12874007;23;20140;-71
2023/08/17 14:46:09;;;;;;;6.25;2.92;;;;;;;;;;12854768;23;20012;-71
2023/08/17 14:51:09;;;;;;;4.50;2.58;;;;;;;;;;12878066;23;20013;-70
2023/08/17 14:56:10;;;;;;;7.45;2.65;;;;;;;;;;12877733;23;20178;-71
2023/08/17 15:01:13;;;;;;;4.38;3.05;;;;;;;;;;12877368;23;19999;-73
2023/08/17 15:06:13;;;;;;;6.18;2.92;;;;;;;;;;12879571;23;20052;-68
2023/08/17 15:11:13;;;;;;;4.17;2.37;;;;;;;;;;12873410;23;20455;-70
2023/08/17 15:16:14;;;;;;;4.32;2.63;;;;;;;;;;12874273;23;19997;-69
2023/08/17 15:21:14;;;;;;;6.88;3.10;;;;;;;;;;12876276;23;20016;-69
2023/08/17 15:26:14;;;;;;;9.50;2.47;;;;;;;;;;12875334;23;20004;-69
2023/08/17 15:31:16;;;;;;;4.47;3.10;;;;;;;;;;12876330;23;19991;-69
2023/08/17 15:36:21;;;;;;;6.05;2.50;;;;;;;;;;12872938;23;20629;-69
2023/08/17 15:41:21;;;;;;;6.32;3.50;;;;;;;;;;12866800;23;20004;-69
2023/08/17 15:46:22;;;;;;;7.25;2.75;;;;;;;;;;12869331;23;20031;-69
2023/08/17 15:51:23;;;;;;;4.75;2.80;;;;;;;;;;12873014;23;19989;-69
2023/08/17 15:56:23;;;;;;;4.63;3.17;;;;;;;;;;12875476;23;20016;-69
2023/08/17 16:01:23;;;;;;;4.20;2.83;;;;;;;;;;12854169;23;20004;-69
2023/08/17 16:06:24;;;;;;;6.40;3.70;;;;;;;;;;12876152;23;19992;-69
2023/08/17 16:11:24;;;;;;;8.57;3.53;;;;;;;;;;12876458;23;20170;-69
2023/08/17 16:16:24;;;;;;;6.85;3.50;;;;;;;;;;12876095;23;20049;-69
2023/08/17 16:21:24;;;;;;;7.53;3.00;;;;;;;;;;12854264;23;20039;-69
2023/08/17 16:26:25;;;;;;;7.43;2.83;;;;;;;;;;12876084;23;20021;-70
2023/08/17 16:31:25;;;;;;;10.15;3.30;;;;;;;;;;12876329;23;20428;-69
2023/08/17 16:36:25;;;;;;;6.45;3.50;;;;;;;;;;12876012;23;20060;-69
2023/08/17 16:41:26;;;;;;;5.95;3.90;;;;;;;;;;12870991;23;20004;-69
2023/08/17 16:46:26;;;;;;;11.60;3.40;;;;;;;;;;12876063;23;20004;-69
2023/08/17 16:51:26;;;;;;;7.07;2.97;;;;;;;;;;12875667;23;19997;-69
2023/08/17 16:56:26;;;;;;;6.57;2.95;;;;;;;;;;12859132;23;20004;-70
2023/08/17 17:01:27;;;;;;;6.28;3.50;;;;;;;;;;12876259;23;20286;-69
2023/08/17 17:06:27;;;;;;;9.57;3.53;;;;;;;;;;12875868;23;19992;-69
2023/08/17 17:11:27;;;;;;;9.63;3.75;;;;;;;;;;12875918;23;20267;-69
2023/08/17 17:16:27;;;;;;;9.23;3.40;;;;;;;;;;12876094;23;19989;-71
2023/08/17 17:21:28;;;;;;;10.98;4.03;;;;;;;;;;12875881;23;20070;-70
2023/08/17 17:26:28;;;;;;;8.27;3.77;;;;;;;;;;12877209;23;20003;-70
2023/08/17 17:31:29;;;;;;;35.40;4.63;;;;;;;;;;12879829;23;20317;-70
2023/08/17 17:36:29;;;;;;;7.50;4.00;;;;;;;;;;12857811;23;20444;-70
2023/08/17 17:41:29;;;;;;;16.27;3.55;;;;;;;;;;12874632;23;20009;-70
2023/08/17 17:46:29;;;;;;;7.57;3.95;;;;;;;;;;12879095;23;20060;-70
2023/08/17 17:51:30;;;;;;;7.07;3.60;;;;;;;;;;12879616;23;20012;-70
2023/08/17 17:56:39;;;;;;;9.32;3.80;;;;;;;;;;12879095;23;20000;-70
2023/08/17 18:01:40;;;;;;;5.85;4.03;;;;;;;;;;12878964;23;19988;-70
2023/08/17 18:06:40;;;;;;;7.47;3.60;;;;;;;;;;12878748;23;20207;-71
2023/08/17 18:11:40;;;;;;;10.20;4.10;;;;;;;;;;12879016;23;19999;-70
2023/08/17 18:16:41;;;;;;;7.38;3.83;;;;;;;;;;12856432;23;20016;-69
2023/08/17 18:21:41;;;;;;;5.70;3.60;;;;;;;;;;12878866;23;20357;-69
2023/08/17 18:26:42;;;;;;;7.75;4.20;;;;;;;;;;12878482;23;20019;-70
2023/08/17 18:31:43;;;;;;;6.80;4.22;;;;;;;;;;12856104;23;20008;-69
2023/08/17 18:36:43;;;;;;;14.90;5.38;;;;;;;;;;12878517;23;20000;-70
2023/08/17 18:41:43;;;;;;;7.03;4.20;;;;;;;;;;12873181;23;20354;-70
2023/08/17 18:46:44;;;;;;;20.88;5.78;;;;;;;;;;12878027;23;20004;-70
2023/08/17 18:51:44;;;;;;;6.80;5.22;;;;;;;;;;12878205;23;20325;-70
2023/08/17 18:56:44;;;;;;;8.05;4.75;;;;;;;;;;12878123;23;20000;-70
2023/08/17 19:01:44;;;;;;;5.95;4.18;;;;;;;;;;12877787;23;20251;-70
2023/08/17 19:06:45;;;;;;;10.82;6.50;;;;;;;;;;12859614;23;20000;-69
2023/08/17 19:11:45;;;;;;;10.75;5.53;;;;;;;;;;12877632;23;19995;-69
2023/08/17 19:16:45;;;;;;;8.77;5.27;;;;;;;;;;12877964;23;20494;-70
2023/08/17 19:21:45;;;;;;;10.02;4.70;;;;;;;;;;12877428;23;20064;-69
2023/08/17 19:26:46;;;;;;;6.72;4.05;;;;;;;;;;12877695;23;20363;-69
2023/08/17 19:31:46;;;;;;;6.05;4.47;;;;;;;;;;12877327;23;20001;-69
2023/08/17 19:36:46;;;;;;;8.20;4.03;;;;;;;;;;12877094;23;19996;-70
2023/08/17 19:41:47;;;;;;;6.07;4.43;;;;;;;;;;12871445;23;19989;-70
2023/08/17 19:46:47;;;;;;;5.80;4.38;;;;;;;;;;12876957;23;20019;-70
2023/08/17 19:51:47;;;;;;;7.47;4.82;;;;;;;;;;12876744;23;20052;-70
2023/08/17 19:56:48;;;;;;;5.70;4.90;;;;;;;;;;12877063;23;20298;-69
2023/08/17 20:01:48;;;;;;;10.27;4.88;;;;;;;;;;12876782;23;20037;-70
2023/08/17 20:06:49;;;;;;;6.45;3.83;;;;;;;;;;12854508;23;20004;-70
2023/08/17 20:11:49;;;;;;;7.15;4.85;;;;;;;;;;12876825;23;19992;-70
2023/08/17 20:16:50;;;;;;;5.33;3.87;;;;;;;;;;12876696;23;20415;-70
2023/08/17 20:21:50;;;;;;;6.90;4.63;;;;;;;;;;12876602;23;20108;-70
2023/08/17 20:26:50;;;;;;;10.38;4.50;;;;;;;;;;12876680;23;20240;-70
2023/08/17 20:31:52;;;;;;;10.63;4.25;;;;;;;;;;12876597;23;20263;-70
2023/08/17 20:36:52;;;;;;;9.48;4.35;;;;;;;;;;12876587;23;20278;-70
2023/08/17 20:41:54;;;;;;;5.80;3.50;;;;;;;;;;12869964;23;19992;-70
2023/08/17 20:46:54;;;;;;;7.97;3.53;;;;;;;;;;12876697;23;20469;-70
2023/08/17 20:51:54;;;;;;;6.50;3.78;;;;;;;;;;12853906;23;20001;-70
2023/08/17 20:56:55;;;;;;;6.20;4.03;;;;;;;;;;12876449;23;20290;-70
2023/08/17 21:01:55;;;;;;;7.35;3.95;;;;;;;;;;12878775;23;20263;-70
2023/08/17 21:06:55;;;;;;;6.57;3.83;;;;;;;;;;12880209;23;20313;-71
2023/08/17 21:11:58;;;;;;;8.45;4.70;;;;;;;;;;12880368;23;19997;-70
2023/08/17 21:16:58;;;;;;;7.88;4.18;;;;;;;;;;12880399;23;19995;-69
2023/08/17 21:21:58;;;;;;;9.50;4.20;;;;;;;;;;12880061;23;20012;-68
2023/08/17 21:26:59;;;;;;;8.45;5.10;;;;;;;;;;12880078;23;20004;-69
2023/08/17 21:31:59;;;;;;;8.30;4.25;;;;;;;;;;12879950;23;19988;-69
2023/08/17 21:37:05;;;;;;;10.38;3.70;;;;;;;;;;12879785;23;20008;-69
2023/08/17 21:42:05;;;;;;;7.00;4.35;;;;;;;;;;12871994;23;20024;-69
2023/08/17 21:47:06;;;;;;;8.73;3.43;;;;;;;;;;12879553;23;20013;-69
2023/08/17 21:52:06;;;;;;;5.45;3.78;;;;;;;;;;12857537;23;20059;-69
2023/08/17 21:57:06;;;;;;;8.63;4.57;;;;;;;;;;12878950;23;19992;-70
2023/08/17 22:02:06;;;;;;;7.03;3.85;;;;;;;;;;12879886;23;20007;-70
2023/08/17 22:07:07;;;;;;;5.47;3.75;;;;;;;;;;12856453;23;19997;-70
2023/08/17 22:12:07;;;;;;;9.02;4.35;;;;;;;;;;12878861;23;20294;-69
2023/08/17 22:17:07;;;;;;;5.93;4.23;;;;;;;;;;12879135;23;19988;-70
2023/08/17 22:22:08;;;;;;;11.80;5.67;;;;;;;;;;12878828;23;20008;-70
2023/08/17 22:27:08;;;;;;;6.82;5.82;;;;;;;;;;12878761;23;20246;-70
2023/08/17 22:32:08;;;;;;;4.57;4.13;;;;;;;;;;12859208;23;20043;-71
2023/08/17 22:37:09;;;;;;;9.15;4.40;;;;;;;;;;12878609;23;20313;-70
2023/08/17 22:42:09;;;;;;;6.15;4.55;;;;;;;;;;12870196;23;20028;-70
2023/08/17 22:47:10;;;;;;;5.50;4.55;;;;;;;;;;12877896;23;20294;-71
2023/08/17 22:52:10;;;;;;;6.57;4.57;;;;;;;;;;12878557;23;20206;-71
2023/08/17 22:57:10;;;;;;;7.27;4.47;;;;;;;;;;12878513;23;20051;-70
2023/08/17 23:02:11;;;;;;;5.40;4.80;;;;;;;;;;12878298;23;19996;-70
2023/08/17 23:07:11;;;;;;;11.05;5.82;;;;;;;;;;12878077;23;19993;-71
2023/08/17 23:12:11;;;;;;;10.90;4.50;;;;;;;;;;12878274;23;20266;-70
2023/08/17 23:17:12;;;;;;;5.73;4.60;;;;;;;;;;12877732;23;20016;-70
2023/08/17 23:22:12;;;;;;;9.70;4.23;;;;;;;;;;12855487;23;20076;-68
2023/08/17 23:27:12;;;;;;;10.30;4.47;;;;;;;;;;12855567;23;20087;-68
2023/08/17 23:32:12;;;;;;;7.70;4.35;;;;;;;;;;12877764;23;20235;-69
2023/08/17 23:37:12;;;;;;;5.10;4.05;;;;;;;;;;12877290;23;19996;-69
2023/08/17 23:42:13;;;;;;;8.30;5.20;;;;;;;;;;12868961;23;20191;-69
2023/08/17 23:47:13;;;;;;;9.25;4.13;;;;;;;;;;12877061;23;19997;-70
2023/08/17 23:52:14;;;;;;;7.57;4.50;;;;;;;;;;12856120;23;20100;-70
2023/08/17 23:57:15;;;;;;;12.48;4.80;;;;;;;;;;12877347;23;19993;-70
